Terminal Aerodrome Forecast
Issued by NWS Chicago, IL

Home | Current Version | Previous Version | Text Only | Print | Product List | Glossary Off
Versions: 1 2 3 4 5 6 7 8 9 10 11 12 13 14 15 16 17 18 19 20 21 22 23 24 25 26 27 28

821
FTUS43 KLOT 142100 AAA
TAFRFD
TAF AMD
KRFD 142100Z 1421/1518 17012KT P6SM OVC035
     FM150100 17010KT 6SM BR OVC030
     FM150600 17012KT 4SM -SHRA BR SCT007 OVC015
     FM151100 18008KT 3SM -RA BR OVC006
     FM151500 24009KT 2SM -RA BR OVC006=

USA.gov is the U.S. government's official web portal to all federal, state and local government web resources and services.